Time;durP1;ratioP1;P1;durP2;ratioP2;P2;SDS_P1;SDS_P2;PMS_P1;PMS_P2;Temp;Humidity;BMP_temperature;BMP_pressure;BME280_temperature;BME280_humidity;BME280_pressure;Samples;Min_cycle;Max_cycle;Signal;HPM_P1;HPM_P2
2022/11/14 00:00:12;;;;;;;48.57;21.87;;;4.60;99.90;;;;;;5030408;28;20127;-73
2022/11/14 00:02:38;;;;;;;48.20;22.45;;;4.70;99.90;;;;;;5048215;28;20032;-73
2022/11/14 00:05:05;;;;;;;43.63;22.50;;;4.70;99.90;;;;;;5044745;28;20127;-73
2022/11/14 00:07:32;;;;;;;45.95;22.88;;;4.70;99.90;;;;;;5048502;28;20083;-73
2022/11/14 00:09:57;;;;;;;48.28;22.13;;;4.70;99.90;;;;;;5045491;28;20052;-73
2022/11/14 00:12:24;;;;;;;42.67;20.97;;;4.70;99.90;;;;;;5024314;28;20316;-73
2022/11/14 00:14:50;;;;;;;52.10;22.95;;;4.70;99.90;;;;;;5064633;28;20536;-73
2022/11/14 00:17:16;;;;;;;49.63;22.10;;;4.80;99.90;;;;;;5048219;28;20036;-73
2022/11/14 00:19:42;;;;;;;47.47;23.30;;;4.80;99.90;;;;;;5044854;28;20114;-73
2022/11/14 00:22:08;;;;;;;52.42;23.92;;;4.80;99.90;;;;;;5072583;28;20044;-73
2022/11/14 00:24:33;;;;;;;48.87;22.57;;;4.90;99.90;;;;;;5033795;28;20048;-73
2022/11/14 00:26:59;;;;;;;44.77;21.67;;;4.90;99.90;;;;;;5064321;28;20458;-73
2022/11/14 00:29:25;;;;;;;48.57;22.23;;;4.90;99.90;;;;;;5047876;28;20072;-73
2022/11/14 00:31:51;;;;;;;53.83;23.60;;;4.90;99.90;;;;;;5028327;28;20048;-73
2022/11/14 00:34:17;;;;;;;48.17;22.23;;;4.90;99.90;;;;;;5047523;28;20065;-73
2022/11/14 00:36:42;;;;;;;49.23;21.73;;;4.90;99.90;;;;;;5048382;28;20059;-73
2022/11/14 00:39:13;;;;;;;50.47;23.23;;;5.00;99.90;;;;;;5041883;28;20068;-73
2022/11/14 00:41:40;;;;;;;47.55;21.98;;;5.00;99.90;;;;;;5063621;28;20061;-73
2022/11/14 00:44:06;;;;;;;50.50;22.48;;;5.00;99.90;;;;;;5063746;28;20127;-73
2022/11/14 00:46:32;;;;;;;54.60;23.20;;;5.00;99.90;;;;;;5047688;28;20123;-73
2022/11/14 00:48:57;;;;;;;51.67;22.90;;;5.10;99.90;;;;;;5030627;28;20363;-73
2022/11/14 00:51:23;;;;;;;49.00;22.73;;;5.10;99.90;;;;;;5026953;28;20036;-73
2022/11/14 00:53:49;;;;;;;50.37;21.77;;;5.10;99.90;;;;;;5057482;28;20044;-73
2022/11/14 00:56:15;;;;;;;49.30;21.67;;;5.20;99.90;;;;;;5044031;28;20072;-73
2022/11/14 00:58:40;;;;;;;49.13;23.13;;;5.20;99.90;;;;;;5042080;28;20044;-74
2022/11/14 01:01:06;;;;;;;45.37;21.73;;;5.20;99.90;;;;;;5062547;28;20526;-74
2022/11/14 01:03:32;;;;;;;49.07;22.33;;;5.20;99.90;;;;;;5041370;28;20072;-73
2022/11/14 01:06:07;;;;;;;51.03;22.80;;;5.30;99.90;;;;;;5021543;28;20098;-73
2022/11/14 01:08:33;;;;;;;45.42;22.63;;;5.30;99.90;;;;;;5058469;28;20459;-73
2022/11/14 01:10:59;;;;;;;47.22;21.17;;;5.30;99.90;;;;;;5055077;28;20042;-73
2022/11/14 01:13:30;;;;;;;50.60;22.13;;;5.30;99.90;;;;;;5059651;28;20450;-73
2022/11/14 01:15:59;;;;;;;46.58;21.70;;;5.30;99.90;;;;;;5053424;28;20097;-73
2022/11/14 01:18:25;;;;;;;43.95;20.30;;;5.30;99.90;;;;;;5059304;28;20388;-73
2022/11/14 01:20:51;;;;;;;47.83;21.53;;;5.30;99.90;;;;;;5043891;28;20043;-73
2022/11/14 01:23:17;;;;;;;41.83;20.13;;;5.30;99.90;;;;;;5023912;28;20060;-73
2022/11/14 01:25:43;;;;;;;44.53;20.70;;;5.30;99.90;;;;;;5045243;28;20461;-73
2022/11/14 01:28:12;;;;;;;47.38;22.15;;;5.40;99.90;;;;;;5045368;28;20063;-73
2022/11/14 01:30:38;;;;;;;45.17;20.60;;;5.40;99.90;;;;;;5058631;28;20041;-73
2022/11/14 01:33:04;;;;;;;43.13;21.85;;;5.40;99.90;;;;;;5050727;28;20040;-73
2022/11/14 01:35:31;;;;;;;46.00;20.90;;;5.40;99.90;;;;;;5065908;28;20143;-73
2022/11/14 01:37:57;;;;;;;45.97;22.30;;;5.40;99.90;;;;;;5036894;28;20043;-73
2022/11/14 01:40:23;;;;;;;41.30;20.80;;;5.50;99.90;;;;;;5049001;28;20061;-73
2022/11/14 01:43:17;;;;;;;43.90;21.00;;;5.50;99.90;;;;;;5053787;28;20452;-74
2022/11/14 01:45:53;;;;;;;44.65;21.15;;;5.50;99.90;;;;;;5067182;28;20051;-73
2022/11/14 01:48:24;;;;;;;39.67;19.83;;;5.50;99.90;;;;;;5047622;28;20110;-73
2022/11/14 01:51:13;;;;;;;40.95;20.63;;;5.50;99.90;;;;;;5069072;28;20602;-73
2022/11/14 01:53:39;;;;;;;40.20;20.67;;;5.50;99.90;;;;;;5046085;28;20174;-73
2022/11/14 01:56:07;;;;;;;41.47;21.00;;;5.50;99.90;;;;;;5067804;28;20146;-73
2022/11/14 01:58:35;;;;;;;42.33;20.90;;;5.60;99.90;;;;;;5064477;28;20410;-73
2022/11/14 02:01:01;;;;;;;42.42;21.67;;;5.60;99.90;;;;;;5068351;28;20062;-73
2022/11/14 02:03:27;;;;;;;40.42;21.73;;;5.60;99.90;;;;;;5069360;28;20053;-73
2022/11/14 02:05:54;;;;;;;42.97;21.83;;;5.60;99.90;;;;;;5086426;28;20054;-73
2022/11/14 02:08:20;;;;;;;41.50;21.83;;;5.60;99.90;;;;;;5031459;28;20039;-73
2022/11/14 02:10:46;;;;;;;41.83;21.15;;;5.60;99.90;;;;;;5067975;28;20094;-73
2022/11/14 02:13:12;;;;;;;40.97;22.63;;;5.60;99.90;;;;;;5067729;28;20842;-73
2022/11/14 02:15:38;;;;;;;39.77;20.73;;;5.60;99.90;;;;;;5053098;28;20361;-73
2022/11/14 02:18:03;;;;;;;39.53;21.25;;;5.60;99.90;;;;;;5050466;28;20040;-73
2022/11/14 02:20:34;;;;;;;42.80;21.40;;;5.60;99.90;;;;;;5050836;28;20515;-73
2022/11/14 02:23:00;;;;;;;41.20;21.10;;;5.60;99.90;;;;;;5064142;28;20039;-73
2022/11/14 02:25:26;;;;;;;41.57;22.43;;;5.60;99.90;;;;;;5026262;28;20424;-73
2022/11/14 02:27:52;;;;;;;42.57;22.13;;;5.70;99.90;;;;;;5069702;28;20066;-73
2022/11/14 02:30:20;;;;;;;42.83;22.43;;;5.70;99.90;;;;;;5051947;28;20667;-73
2022/11/14 02:32:46;;;;;;;44.35;22.45;;;5.70;99.90;;;;;;5068472;28;20041;-73
2022/11/14 02:35:12;;;;;;;39.33;22.17;;;5.60;99.90;;;;;;5035711;28;20069;-73
2022/11/14 02:37:39;;;;;;;41.72;22.15;;;5.70;99.90;;;;;;5069352;28;20524;-73
2022/11/14 02:40:06;;;;;;;40.28;21.60;;;5.60;99.90;;;;;;5052449;28;20060;-73
2022/11/14 02:42:31;;;;;;;44.50;22.63;;;5.60;99.90;;;;;;5046381;28;20476;-73
2022/11/14 02:44:57;;;;;;;42.37;22.07;;;5.60;99.90;;;;;;5029360;28;20501;-73
2022/11/14 02:47:23;;;;;;;42.90;22.73;;;5.60;99.90;;;;;;5044486;28;20052;-73
2022/11/14 02:49:50;;;;;;;41.05;22.15;;;5.60;99.90;;;;;;5048978;28;20098;-73
2022/11/14 02:52:16;;;;;;;45.60;23.25;;;5.60;99.90;;;;;;5047786;28;20090;-73
2022/11/14 02:54:42;;;;;;;43.47;24.00;;;5.50;99.90;;;;;;5032424;28;20040;-73
2022/11/14 02:57:07;;;;;;;42.30;22.20;;;5.50;99.90;;;;;;5046621;28;20040;-73
2022/11/14 02:59:33;;;;;;;44.47;23.13;;;5.50;99.90;;;;;;5080311;28;20048;-73
2022/11/14 03:01:59;;;;;;;43.50;22.60;;;5.50;99.90;;;;;;5048101;28;20135;-73
2022/11/14 03:04:25;;;;;;;40.60;22.93;;;5.50;99.90;;;;;;5055336;28;20217;-74
2022/11/14 03:06:50;;;;;;;43.97;22.37;;;5.50;99.90;;;;;;5028387;28;20037;-73
2022/11/14 03:09:17;;;;;;;44.10;22.97;;;5.50;99.90;;;;;;5032892;28;20044;-73
2022/11/14 03:11:43;;;;;;;46.10;23.38;;;5.40;99.90;;;;;;5062060;28;20047;-73
2022/11/14 03:14:08;;;;;;;43.97;22.60;;;5.40;99.90;;;;;;5048926;28;20041;-73
2022/11/14 03:16:34;;;;;;;50.73;25.20;;;5.40;99.90;;;;;;5044752;28;20069;-73
2022/11/14 03:19:01;;;;;;;42.57;22.70;;;5.40;99.90;;;;;;5044271;28;20110;-73
2022/11/14 03:21:27;;;;;;;46.83;24.55;;;5.40;99.90;;;;;;5059761;28;20047;-73
2022/11/14 03:23:53;;;;;;;46.38;24.85;;;5.40;99.90;;;;;;5062126;28;20560;-73
2022/11/14 03:26:18;;;;;;;46.77;24.03;;;5.40;99.90;;;;;;5045885;28;20032;-73
2022/11/14 03:28:44;;;;;;;48.50;25.83;;;5.40;99.90;;;;;;5032277;28;20185;-74
2022/11/14 03:31:12;;;;;;;50.87;25.87;;;5.40;99.90;;;;;;5032810;28;20063;-73
2022/11/14 03:33:38;;;;;;;47.92;26.15;;;5.40;99.90;;;;;;5062957;28;20301;-73
2022/11/14 03:36:05;;;;;;;47.40;25.13;;;5.40;99.90;;;;;;5049569;28;20040;-73
2022/11/14 03:38:31;;;;;;;49.15;25.13;;;5.40;99.90;;;;;;5027439;28;20036;-73
2022/11/14 03:40:58;;;;;;;49.67;25.73;;;5.40;99.90;;;;;;5047130;28;20064;-73
2022/11/14 03:43:24;;;;;;;51.92;26.20;;;5.40;99.90;;;;;;5065002;28;20045;-73
2022/11/14 03:45:50;;;;;;;52.67;27.55;;;5.40;99.90;;;;;;5065835;28;20102;-73
2022/11/14 03:48:16;;;;;;;62.77;30.10;;;5.40;99.90;;;;;;5048634;28;20048;-73
2022/11/14 03:50:42;;;;;;;54.70;28.60;;;5.40;99.90;;;;;;5060633;28;20040;-73
2022/11/14 03:53:09;;;;;;;59.78;29.33;;;5.40;99.90;;;;;;5048470;28;20040;-74
2022/11/14 03:55:35;;;;;;;61.22;30.45;;;5.50;99.90;;;;;;5042585;28;20123;-73
2022/11/14 03:58:00;;;;;;;56.83;30.80;;;5.50;99.90;;;;;;5060518;28;20120;-73
2022/11/14 04:00:27;;;;;;;63.77;30.50;;;5.50;99.90;;;;;;5030876;28;20047;-73
2022/11/14 04:02:56;;;;;;;58.28;30.35;;;5.50;99.90;;;;;;5040068;28;20049;-73
2022/11/14 04:05:23;;;;;;;61.22;31.17;;;5.50;99.90;;;;;;5045026;28;20044;-73
2022/11/14 04:07:49;;;;;;;64.93;32.20;;;5.50;99.90;;;;;;5047181;28;20072;-73
2022/11/14 04:10:15;;;;;;;64.82;31.63;;;5.50;99.90;;;;;;5028390;28;20040;-73
2022/11/14 04:12:45;;;;;;;65.82;32.97;;;5.50;99.90;;;;;;5063288;28;20040;-73
2022/11/14 04:15:11;;;;;;;69.40;33.63;;;5.50;99.90;;;;;;5044982;28;20033;-73
2022/11/14 04:17:37;;;;;;;61.30;33.30;;;5.50;99.90;;;;;;5025405;28;20045;-73
2022/11/14 04:20:03;;;;;;;67.33;33.50;;;5.50;99.90;;;;;;5027309;28;20040;-73
2022/11/14 04:22:28;;;;;;;65.13;32.80;;;5.50;99.90;;;;;;5062002;28;20519;-73
2022/11/14 04:24:54;;;;;;;65.00;32.67;;;5.40;99.90;;;;;;5031446;28;20059;-73
2022/11/14 04:27:20;;;;;;;68.63;32.83;;;5.40;99.90;;;;;;5057910;28;20052;-73
2022/11/14 04:29:45;;;;;;;68.33;34.67;;;5.40;99.90;;;;;;5047929;28;20040;-73
2022/11/14 04:32:11;;;;;;;67.40;33.83;;;5.40;99.90;;;;;;5029537;28;20060;-73
2022/11/14 04:34:37;;;;;;;66.77;32.50;;;5.40;99.90;;;;;;5061674;28;20108;-73
2022/11/14 04:37:02;;;;;;;67.23;33.07;;;5.40;99.90;;;;;;5043077;28;20485;-73
2022/11/14 04:39:28;;;;;;;71.00;34.03;;;5.40;99.90;;;;;;5045300;28;20041;-73
2022/11/14 04:41:54;;;;;;;65.77;31.97;;;5.40;99.90;;;;;;5064148;28;20139;-73
2022/11/14 04:44:19;;;;;;;64.87;32.20;;;5.30;99.90;;;;;;5063487;28;20075;-73
2022/11/14 04:46:45;;;;;;;67.60;31.93;;;5.30;99.90;;;;;;5047532;28;20147;-74
2022/11/14 04:49:11;;;;;;;70.27;33.77;;;5.30;99.90;;;;;;5061130;28;20045;-73
2022/11/14 04:51:36;;;;;;;71.40;33.80;;;5.30;99.90;;;;;;5064133;28;20288;-73
2022/11/14 04:54:02;;;;;;;69.43;34.53;;;5.30;99.90;;;;;;5036951;28;20036;-73
2022/11/14 04:56:28;;;;;;;68.40;32.97;;;5.20;99.90;;;;;;5041221;28;20036;-73
2022/11/14 04:58:54;;;;;;;69.87;33.63;;;5.20;99.90;;;;;;5040527;28;20123;-73
2022/11/14 05:01:20;;;;;;;63.37;32.50;;;5.20;99.90;;;;;;5042115;28;20494;-73
2022/11/14 05:03:45;;;;;;;67.20;32.67;;;5.20;99.90;;;;;;5050945;28;20041;-73
2022/11/14 05:06:11;;;;;;;67.53;33.63;;;5.20;99.90;;;;;;5030514;28;20066;-73
2022/11/14 05:08:37;;;;;;;66.37;32.60;;;5.20;99.90;;;;;;5027340;28;20041;-73
2022/11/14 05:11:03;;;;;;;64.00;31.63;;;5.10;99.90;;;;;;5062668;28;20606;-73
2022/11/14 05:13:29;;;;;;;70.20;33.07;;;5.10;99.90;;;;;;5023070;28;20115;-73
2022/11/14 05:15:58;;;;;;;71.43;34.37;;;5.10;99.90;;;;;;5055763;28;20408;-73
2022/11/14 05:18:24;;;;;;;67.43;33.33;;;5.10;99.90;;;;;;5063535;28;20686;-73
2022/11/14 05:20:50;;;;;;;63.43;32.63;;;5.00;99.90;;;;;;5044486;28;20044;-74
2022/11/14 05:23:22;;;;;;;67.50;32.60;;;5.00;99.90;;;;;;5058683;28;20488;-74
2022/11/14 05:26:07;;;;;;;70.82;33.95;;;5.00;99.90;;;;;;5057500;28;20080;-73
2022/11/14 05:28:33;;;;;;;69.43;33.75;;;5.00;99.90;;;;;;5077843;28;20260;-73
2022/11/14 05:31:11;;;;;;;69.17;34.83;;;5.00;99.90;;;;;;5042419;28;20051;-73
2022/11/14 05:33:37;;;;;;;74.25;35.33;;;5.00;99.90;;;;;;5060668;28;20115;-73
2022/11/14 05:36:08;;;;;;;67.57;32.70;;;4.90;99.90;;;;;;5060560;28;20320;-73
2022/11/14 05:38:35;;;;;;;69.03;32.97;;;4.90;99.90;;;;;;5042687;28;20079;-73
2022/11/14 05:41:13;;;;;;;67.93;32.92;;;4.90;99.90;;;;;;5043147;28;20129;-73
2022/11/14 05:43:39;;;;;;;65.15;33.40;;;4.90;99.90;;;;;;5056844;28;20090;-73
2022/11/14 05:46:06;;;;;;;71.63;34.75;;;4.90;99.90;;;;;;5044801;28;20048;-73
2022/11/14 05:48:32;;;;;;;70.55;33.60;;;4.90;99.90;;;;;;5042387;28;20127;-73
2022/11/14 05:51:00;;;;;;;74.83;36.20;;;4.90;99.90;;;;;;5029743;28;20430;-73
2022/11/14 05:53:27;;;;;;;67.88;33.53;;;4.90;99.90;;;;;;5052778;28;20049;-73
2022/11/14 05:55:54;;;;;;;68.78;34.17;;;4.90;99.90;;;;;;5027750;28;20037;-73
2022/11/14 05:58:20;;;;;;;68.95;33.10;;;4.90;99.90;;;;;;5056846;28;20105;-73
2022/11/14 06:00:46;;;;;;;72.00;33.20;;;4.90;99.90;;;;;;5064704;28;20048;-73
2022/11/14 06:03:13;;;;;;;69.15;34.05;;;4.90;99.90;;;;;;5029984;28;20040;-73
2022/11/14 06:05:40;;;;;;;71.35;33.00;;;4.90;99.90;;;;;;5013602;28;20045;-73
2022/11/14 06:08:05;;;;;;;70.32;33.67;;;4.90;99.90;;;;;;5037873;28;20128;-73
2022/11/14 06:10:34;;;;;;;70.00;33.43;;;4.90;99.90;;;;;;5022373;28;20124;-73
2022/11/14 06:13:00;;;;;;;66.70;32.90;;;4.90;99.90;;;;;;5041061;28;20126;-73
2022/11/14 06:15:25;;;;;;;71.40;33.87;;;4.90;99.90;;;;;;5027735;28;20028;-73
2022/11/14 06:17:53;;;;;;;67.13;32.93;;;4.90;99.90;;;;;;5057363;28;20036;-73
2022/11/14 06:20:19;;;;;;;69.05;33.58;;;4.90;99.90;;;;;;5039585;28;20232;-73
2022/11/14 06:22:45;;;;;;;68.95;34.67;;;4.90;99.90;;;;;;5047518;28;20098;-73
2022/11/14 06:25:10;;;;;;;64.73;33.03;;;4.90;99.90;;;;;;5065778;28;20040;-73
2022/11/14 06:27:36;;;;;;;68.30;33.87;;;4.90;99.90;;;;;;5047828;28;20114;-73
2022/11/14 06:30:03;;;;;;;72.90;33.57;;;4.90;99.90;;;;;;5066557;28;20119;-73
2022/11/14 06:32:29;;;;;;;69.05;33.75;;;4.90;99.90;;;;;;5047448;28;20441;-73
2022/11/14 06:34:54;;;;;;;71.83;34.00;;;4.90;99.90;;;;;;5079675;28;20120;-73
2022/11/14 06:37:20;;;;;;;75.50;35.70;;;4.90;99.90;;;;;;5025846;28;20047;-73
2022/11/14 06:39:46;;;;;;;66.47;32.73;;;4.90;99.90;;;;;;5065424;28;20442;-73
2022/11/14 06:42:11;;;;;;;63.53;32.77;;;4.90;99.90;;;;;;5053121;28;20090;-73
2022/11/14 06:44:37;;;;;;;68.60;33.67;;;4.90;99.90;;;;;;5029753;28;20036;-73
2022/11/14 06:47:03;;;;;;;67.57;32.87;;;4.90;99.90;;;;;;5039846;28;20055;-73
2022/11/14 06:49:28;;;;;;;67.93;33.37;;;4.90;99.90;;;;;;5043727;28;20076;-73
2022/11/14 06:51:54;;;;;;;66.30;33.73;;;5.00;99.90;;;;;;5027001;28;20059;-73
2022/11/14 06:54:20;;;;;;;66.33;33.23;;;4.90;99.90;;;;;;5042965;28;20032;-73
2022/11/14 06:56:45;;;;;;;70.40;34.10;;;4.90;99.90;;;;;;5058875;28;20391;-73
2022/11/14 06:59:11;;;;;;;64.60;33.07;;;5.00;99.90;;;;;;5047263;28;20585;-73
2022/11/14 07:01:37;;;;;;;69.17;33.50;;;5.00;99.90;;;;;;5028619;28;20061;-73
2022/11/14 07:04:03;;;;;;;65.57;32.87;;;5.00;99.90;;;;;;5056140;28;20136;-73
2022/11/14 07:06:30;;;;;;;67.70;33.73;;;5.00;99.90;;;;;;5044704;28;20091;-73
2022/11/14 07:08:56;;;;;;;67.07;33.78;;;5.00;99.90;;;;;;5056812;28;20063;-73
2022/11/14 07:11:28;;;;;;;64.63;31.73;;;5.00;99.90;;;;;;5076148;28;20037;-73
2022/11/14 07:13:59;;;;;;;64.50;32.55;;;5.00;99.90;;;;;;5062305;28;20084;-73
2022/11/14 07:16:29;;;;;;;70.75;33.50;;;5.00;99.90;;;;;;5078311;28;20048;-73
2022/11/14 07:18:57;;;;;;;64.35;32.63;;;5.00;99.90;;;;;;5049154;28;20119;-73
2022/11/14 07:21:23;;;;;;;65.45;32.65;;;5.00;99.90;;;;;;5025991;28;20084;-73
2022/11/14 07:23:49;;;;;;;64.25;32.42;;;5.00;99.90;;;;;;5045861;28;20040;-73
2022/11/14 07:26:15;;;;;;;63.23;31.53;;;5.00;99.90;;;;;;5033660;28;20067;-73
2022/11/14 07:28:43;;;;;;;65.10;32.00;;;5.00;99.90;;;;;;5022611;28;20419;-73
2022/11/14 07:31:12;;;;;;;68.57;33.03;;;5.00;99.90;;;;;;5033653;28;20308;-73
2022/11/14 07:33:39;;;;;;;66.55;33.42;;;5.10;99.90;;;;;;5054339;28;20358;-73
2022/11/14 07:36:05;;;;;;;66.03;33.28;;;5.10;99.90;;;;;;5033463;28;20489;-73
2022/11/14 07:38:32;;;;;;;62.65;32.35;;;5.10;99.90;;;;;;5052106;28;20090;-73
2022/11/14 07:41:00;;;;;;;60.88;32.90;;;5.10;99.90;;;;;;5057074;28;20153;-73
2022/11/14 07:43:27;;;;;;;67.97;33.38;;;5.10;99.90;;;;;;5062909;28;20087;-73
2022/11/14 07:45:53;;;;;;;64.13;32.50;;;5.10;99.90;;;;;;5057128;28;20154;-73
2022/11/14 07:48:20;;;;;;;63.50;31.70;;;5.10;99.90;;;;;;5038195;28;20568;-74
2022/11/14 07:50:46;;;;;;;68.00;32.55;;;5.10;99.90;;;;;;5066420;28;20052;-74
2022/11/14 07:53:14;;;;;;;63.40;31.77;;;5.10;99.90;;;;;;5039289;28;20086;-73
2022/11/14 07:55:40;;;;;;;70.15;34.05;;;5.20;99.90;;;;;;5057930;28;20045;-74
2022/11/14 07:58:05;;;;;;;62.13;32.40;;;5.20;99.90;;;;;;5060677;28;20036;-73
2022/11/14 08:00:31;;;;;;;64.97;31.70;;;5.20;99.90;;;;;;5049500;28;20040;-73
2022/11/14 08:02:57;;;;;;;64.80;32.37;;;5.20;99.90;;;;;;5060765;28;20040;-74
2022/11/14 08:05:22;;;;;;;65.83;32.87;;;5.20;99.90;;;;;;5042127;28;20429;-74
2022/11/14 08:07:52;;;;;;;68.73;33.80;;;5.20;99.90;;;;;;5029858;28;20251;-74
2022/11/14 08:10:18;;;;;;;63.90;31.67;;;5.20;99.90;;;;;;5065124;28;20106;-74
2022/11/14 08:12:45;;;;;;;68.35;34.95;;;5.20;99.90;;;;;;5030756;28;20773;-73
2022/11/14 08:15:12;;;;;;;63.13;31.95;;;5.30;99.90;;;;;;5057229;28;20048;-73
2022/11/14 08:17:39;;;;;;;72.07;33.40;;;5.30;99.90;;;;;;5063641;28;20044;-74
2022/11/14 08:20:07;;;;;;;65.55;32.00;;;5.30;99.90;;;;;;5058369;28;20460;-73
2022/11/14 08:22:33;;;;;;;67.45;33.03;;;5.30;99.90;;;;;;5027972;28;20451;-74
2022/11/14 08:24:58;;;;;;;64.30;31.63;;;5.30;99.90;;;;;;5029959;28;20044;-73
2022/11/14 08:27:24;;;;;;;67.67;33.77;;;5.40;99.90;;;;;;5046407;28;20048;-74
2022/11/14 08:29:50;;;;;;;65.70;32.80;;;5.40;99.90;;;;;;5042200;28;20051;-73
2022/11/14 08:32:17;;;;;;;63.45;32.47;;;5.40;99.90;;;;;;5065217;28;20133;-74
2022/11/14 08:34:43;;;;;;;65.55;33.53;;;5.40;99.90;;;;;;5049466;28;20492;-74
2022/11/14 08:37:09;;;;;;;66.47;33.00;;;5.40;99.90;;;;;;5027737;28;20707;-74
2022/11/14 08:39:34;;;;;;;66.27;33.37;;;5.40;99.90;;;;;;5042664;28;20077;-73
2022/11/14 08:42:00;;;;;;;67.70;33.47;;;5.50;99.90;;;;;;5037386;28;20520;-74
2022/11/14 08:44:27;;;;;;;68.90;33.47;;;5.50;99.90;;;;;;5021835;28;20051;-73
2022/11/14 08:46:53;;;;;;;65.20;32.75;;;5.60;99.90;;;;;;5064395;28;20048;-73
2022/11/14 08:49:19;;;;;;;69.00;33.60;;;5.50;99.90;;;;;;5031834;28;20131;-73
2022/11/14 08:51:44;;;;;;;66.83;33.50;;;5.50;99.90;;;;;;5047812;28;20040;-74
2022/11/14 08:54:10;;;;;;;64.73;33.27;;;5.50;99.90;;;;;;5042410;28;20087;-73
2022/11/14 08:56:36;;;;;;;67.03;33.87;;;5.50;99.90;;;;;;5065015;28;20071;-74
2022/11/14 08:59:03;;;;;;;65.47;33.20;;;5.50;99.90;;;;;;5039045;28;20040;-73
2022/11/14 09:01:31;;;;;;;62.85;31.55;;;5.50;99.90;;;;;;5063641;28;20041;-74
2022/11/14 09:03:57;;;;;;;60.70;31.73;;;5.50;99.90;;;;;;5027283;28;20068;-74
2022/11/14 09:06:23;;;;;;;62.60;31.70;;;5.50;99.90;;;;;;5019022;28;20069;-75
2022/11/14 09:08:48;;;;;;;56.20;29.47;;;5.50;99.90;;;;;;5042469;28;20291;-74
2022/11/14 09:11:14;;;;;;;61.97;30.40;;;5.60;99.90;;;;;;5065728;28;20079;-74
2022/11/14 09:13:40;;;;;;;64.93;32.93;;;5.60;99.90;;;;;;5042614;28;20033;-75
2022/11/14 09:16:06;;;;;;;64.87;32.43;;;5.60;99.90;;;;;;5054625;28;20048;-73
2022/11/14 09:18:31;;;;;;;62.83;31.17;;;5.60;99.90;;;;;;5037690;28;20555;-73
2022/11/14 09:21:03;;;;;;;64.33;31.70;;;5.70;99.90;;;;;;5055573;28;20352;-74
2022/11/14 09:23:28;;;;;;;60.78;31.90;;;5.80;99.90;;;;;;5064330;28;20044;-74
2022/11/14 09:25:55;;;;;;;67.80;34.13;;;5.90;99.90;;;;;;5054348;28;20037;-73
2022/11/14 09:28:22;;;;;;;65.35;32.00;;;6.00;99.90;;;;;;5036244;28;20087;-74
2022/11/14 09:30:49;;;;;;;65.88;32.13;;;5.90;99.90;;;;;;5052779;28;20040;-74
2022/11/14 09:33:15;;;;;;;67.28;32.42;;;5.90;99.90;;;;;;5049965;28;20076;-74
2022/11/14 09:35:41;;;;;;;67.20;32.28;;;5.90;99.90;;;;;;5040731;28;20425;-75
2022/11/14 09:38:10;;;;;;;67.53;31.90;;;6.00;99.90;;;;;;5033390;28;20375;-74
2022/11/14 09:40:51;;;;;;;67.70;32.70;;;6.00;99.90;;;;;;5040724;28;20044;-74
2022/11/14 09:43:37;;;;;;;63.88;31.48;;;6.10;99.90;;;;;;5033862;28;20543;-73
2022/11/14 09:46:21;;;;;;;63.40;32.45;;;6.10;99.90;;;;;;5071786;28;20080;-74
2022/11/14 09:48:47;;;;;;;65.07;32.30;;;6.10;99.90;;;;;;5031457;28;20052;-74
2022/11/14 09:51:21;;;;;;;62.95;31.33;;;6.20;99.90;;;;;;5056967;28;20051;-74
2022/11/14 09:54:23;;;;;;;62.78;32.35;;;6.20;99.90;;;;;;5045147;28;20047;-74
2022/11/14 09:56:50;;;;;;;62.60;30.17;;;6.30;99.90;;;;;;5040242;28;20060;-74
2022/11/14 09:59:16;;;;;;;61.60;32.28;;;6.30;99.90;;;;;;5049971;28;20068;-74
2022/11/14 10:02:03;;;;;;;60.25;32.25;;;6.30;99.90;;;;;;5062919;28;20060;-74
2022/11/14 10:05:07;;;;;;;64.00;32.45;;;6.30;99.90;;;;;;5035198;28;20521;-74
2022/11/14 10:08:00;;;;;;;65.03;33.65;;;6.30;99.90;;;;;;5050294;28;20050;-74
2022/11/14 10:10:46;;;;;;;60.38;31.48;;;6.30;99.90;;;;;;5016064;28;20059;-74
2022/11/14 10:13:16;;;;;;;60.80;30.13;;;6.30;99.90;;;;;;5038620;28;20205;-74
2022/11/14 10:15:58;;;;;;;61.28;31.17;;;6.30;99.90;;;;;;5054945;28;20037;-73
2022/11/14 10:18:51;;;;;;;58.47;31.10;;;6.40;99.90;;;;;;5057291;28;20488;-74
2022/11/14 10:21:34;;;;;;;61.53;31.63;;;6.40;99.90;;;;;;5069835;28;20668;-74
2022/11/14 10:24:30;;;;;;;59.95;31.67;;;6.40;99.90;;;;;;5049553;28;20153;-73
2022/11/14 10:27:03;;;;;;;53.67;29.33;;;6.50;99.90;;;;;;5068236;28;20569;-74
2022/11/14 10:30:10;;;;;;;58.15;29.50;;;6.50;99.90;;;;;;5047059;28;20046;-73
2022/11/14 10:32:45;;;;;;;53.45;27.25;;;6.60;99.90;;;;;;4989317;28;20045;-73
2022/11/14 10:35:16;;;;;;;56.58;29.05;;;6.60;99.90;;;;;;4989227;28;20133;-73
2022/11/14 10:38:31;;;;;;;55.28;29.45;;;6.70;99.90;;;;;;5011564;28;20045;-73
2022/11/14 10:41:01;;;;;;;55.35;28.77;;;6.70;99.90;;;;;;5042733;28;20041;-73
2022/11/14 10:43:46;;;;;;;53.30;28.90;;;6.80;99.90;;;;;;5052341;28;20218;-73
2022/11/14 10:46:24;;;;;;;52.05;29.58;;;6.80;99.90;;;;;;5047856;28;20070;-73
2022/11/14 10:48:51;;;;;;;56.92;30.13;;;6.90;99.90;;;;;;5037873;28;20067;-73
2022/11/14 10:51:29;;;;;;;53.65;28.65;;;7.00;99.90;;;;;;5064752;28;20044;-73
2022/11/14 10:53:57;;;;;;;59.40;29.00;;;7.00;99.90;;;;;;5061441;28;20036;-73
2022/11/14 10:56:23;;;;;;;53.47;28.38;;;7.10;99.90;;;;;;5036228;28;20039;-73
2022/11/14 10:58:48;;;;;;;55.30;28.93;;;7.10;99.90;;;;;;5057616;28;20452;-73
2022/11/14 11:01:40;;;;;;;50.10;28.43;;;7.20;99.90;;;;;;5045295;28;20083;-73
2022/11/14 11:04:25;;;;;;;50.65;26.70;;;7.20;99.90;;;;;;5050049;28;20073;-73
2022/11/14 11:06:56;;;;;;;49.17;26.77;;;7.30;99.90;;;;;;5033455;28;20472;-73
2022/11/14 11:12:19;;;;;;;54.08;27.40;;;7.40;99.90;;;;;;5046034;28;20110;-73
2022/11/14 11:14:47;;;;;;;46.20;24.88;;;7.40;99.90;;;;;;5048748;28;20051;-73
2022/11/14 11:17:14;;;;;;;54.72;27.67;;;7.40;99.90;;;;;;5049373;28;20037;-74
2022/11/14 11:19:41;;;;;;;49.40;28.25;;;7.50;99.90;;;;;;5062001;28;20526;-74
2022/11/14 11:22:24;;;;;;;49.85;27.08;;;7.50;99.90;;;;;;5062915;28;20043;-74
2022/11/14 11:24:50;;;;;;;48.33;26.33;;;7.60;99.90;;;;;;5047352;28;20072;-73
2022/11/14 11:27:25;;;;;;;49.20;25.63;;;7.60;99.90;;;;;;5039759;28;20135;-73
2022/11/14 11:30:17;;;;;;;46.70;25.38;;;7.60;99.90;;;;;;5050711;28;20045;-74
2022/11/14 11:32:43;;;;;;;53.55;28.33;;;7.70;99.90;;;;;;5051194;28;20433;-73
2022/11/14 11:35:13;;;;;;;45.43;25.57;;;7.70;99.90;;;;;;5040667;28;20040;-74
2022/11/14 11:37:53;;;;;;;45.95;24.90;;;7.80;99.90;;;;;;5050439;28;20040;-74
2022/11/14 11:40:23;;;;;;;49.83;26.58;;;7.80;99.90;;;;;;5047332;28;20056;-75
2022/11/14 11:43:02;;;;;;;46.70;26.08;;;7.90;99.90;;;;;;5059948;28;20425;-74
2022/11/14 11:45:31;;;;;;;46.05;26.23;;;8.00;99.90;;;;;;5040159;28;20122;-75
2022/11/14 11:48:06;;;;;;;47.90;26.10;;;8.00;99.90;;;;;;5050461;28;20036;-74
2022/11/14 11:50:32;;;;;;;43.08;24.88;;;8.00;99.90;;;;;;5076298;28;20330;-73
2022/11/14 11:53:20;;;;;;;43.80;25.33;;;8.00;99.90;;;;;;5018130;28;20036;-73
2022/11/14 11:55:50;;;;;;;48.38;25.55;;;8.10;99.90;;;;;;5059293;28;20041;-74
2022/11/14 11:58:15;;;;;;;47.28;26.25;;;8.20;99.90;;;;;;5053732;28;20059;-73
2022/11/14 12:00:41;;;;;;;44.30;25.67;;;8.20;99.90;;;;;;5050880;28;20048;-73
2022/11/14 12:03:14;;;;;;;45.13;25.67;;;8.30;99.90;;;;;;5044614;28;20932;-73
2022/11/14 12:05:56;;;;;;;40.17;23.52;;;8.30;99.90;;;;;;5066090;28;20048;-74
2022/11/14 12:09:12;;;;;;;45.45;26.30;;;8.30;99.90;;;;;;5045674;28;20052;-74
2022/11/14 12:11:43;;;;;;;45.92;25.58;;;8.30;99.90;;;;;;5007618;28;20587;-75
2022/11/14 12:14:23;;;;;;;45.17;24.92;;;8.30;99.90;;;;;;5059642;28;20056;-74
2022/11/14 12:17:21;;;;;;;49.15;26.50;;;8.30;99.90;;;;;;5057198;28;20040;-74
2022/11/14 12:20:06;;;;;;;46.65;26.27;;;8.30;99.90;;;;;;5040596;28;20037;-73
2022/11/14 12:23:17;;;;;;;46.00;26.45;;;8.30;99.90;;;;;;5062579;28;20053;-74
2022/11/14 12:25:53;;;;;;;44.67;25.33;;;8.30;99.90;;;;;;5048597;28;20050;-73
2022/11/14 12:28:58;;;;;;;49.67;26.13;;;8.30;99.90;;;;;;5056484;28;20041;-74
2022/11/14 12:31:30;;;;;;;43.95;24.63;;;8.30;99.90;;;;;;5048729;28;20121;-73
2022/11/14 12:34:19;;;;;;;47.33;25.95;;;8.30;99.90;;;;;;5046116;28;20094;-74
2022/11/14 12:36:45;;;;;;;44.60;25.60;;;8.30;99.90;;;;;;5055189;28;20036;-74
2022/11/14 12:39:31;;;;;;;44.63;25.90;;;8.30;99.90;;;;;;5042030;28;20040;-73
2022/11/14 12:42:06;;;;;;;45.70;25.65;;;8.30;99.90;;;;;;5063869;28;20083;-73
2022/11/14 12:44:38;;;;;;;46.40;25.95;;;8.30;99.90;;;;;;5050196;28;20059;-74
2022/11/14 12:47:04;;;;;;;43.33;26.38;;;8.30;99.90;;;;;;5043596;28;20036;-73
2022/11/14 12:49:37;;;;;;;45.77;26.23;;;8.30;99.90;;;;;;5049771;28;20349;-74